Merrifield, Virginia
Current Conditions -  °F | °C
As of 3:52 AM on Friday 24 Oct 2014 (Local Time) from KDCA Reporting Station
Few Clouds Few Clouds  
Wind Chill: 58°   Ceiling: Unl
Heat Index: 58°   Visibility: 10mi
Dew Point: 41°   Wind: 10mph
Humidity: 53%   Direction: 330°NNW
Pressure: 29.92"   Gusts: 18mph
Location:  38.87°N, 77.23°W
Report Text: KDCA 240752Z 33009G16KT 10SM FEW050 14/05 A2992 RMK AO2 SLP130 T01440050 $
Loading
Personal Weather Stations






























Interactive Weather Map
Tropical Storm Tracking
New forecast layout! Learn more

10-Day Weather Forecast

Advertisements
Track Severe Weather on mobile